createdAt,value
2019-05-01T12:40:10.944Z,29.70
2019-05-01T12:42:39.892Z,28.30
2019-05-01T12:45:13.099Z,28.00
2019-05-01T12:47:45.688Z,27.80
2019-05-01T12:50:15.189Z,27.70
2019-05-01T12:52:47.727Z,28.70
2019-05-01T12:55:24.686Z,27.20
2019-05-01T12:57:56.923Z,26.80
2019-05-01T13:00:40.469Z,24.80
2019-05-01T13:03:12.602Z,22.90
2019-05-01T13:05:44.551Z,22.90
2019-05-01T13:08:15.248Z,24.00
2019-05-01T13:10:45.930Z,24.00
2019-05-01T13:13:16.900Z,25.30
2019-05-01T13:15:46.440Z,27.30
2019-05-01T13:18:15.847Z,28.10
2019-05-01T13:20:44.680Z,27.50
2019-05-01T13:23:13.367Z,27.80
2019-05-01T13:25:42.538Z,27.80
2019-05-01T13:28:29.436Z,27.80
2019-05-01T13:31:08.930Z,28.00
2019-05-01T13:33:38.678Z,28.10
2019-05-01T13:36:07.391Z,26.10
2019-05-01T13:38:36.076Z,25.20
2019-05-01T13:41:05.038Z,24.20
2019-05-01T13:43:33.831Z,24.50
2019-05-01T13:46:02.589Z,22.90
2019-05-01T13:48:31.293Z,22.60
2019-05-01T13:51:00.105Z,21.90
2019-05-01T13:53:34.696Z,22.80
2019-05-01T13:56:08.506Z,22.70
2019-05-01T13:58:43.465Z,22.40
2019-05-01T14:01:19.320Z,21.20
2019-05-01T14:03:48.471Z,21.80
2019-05-01T14:06:17.225Z,22.40
2019-05-01T14:08:45.841Z,22.80
2019-05-01T14:11:14.653Z,23.70
2019-05-01T14:13:43.391Z,24.40
2019-05-01T14:16:14.343Z,24.20
2019-05-01T14:18:43.450Z,23.90
2019-05-01T14:21:17.577Z,21.80
2019-05-01T14:24:00.267Z,21.50
2019-05-01T14:26:30.165Z,22.00
2019-05-01T14:28:59.705Z,21.30
2019-05-01T14:31:29.040Z,21.60
2019-05-01T14:33:58.657Z,21.80
2019-05-01T14:36:28.039Z,23.30
2019-05-01T14:38:57.458Z,24.50
2019-05-01T14:41:26.988Z,24.00
2019-05-01T14:43:56.609Z,24.10
2019-05-01T14:46:26.154Z,24.00
2019-05-01T14:48:55.646Z,23.60
2019-05-01T14:51:25.156Z,26.00
2019-05-01T14:53:54.789Z,27.70
2019-05-01T14:56:24.262Z,29.00
2019-05-01T14:58:53.801Z,28.80
2019-05-01T15:01:22.979Z,28.60
2019-05-01T15:03:52.110Z,28.50
2019-05-01T15:06:21.225Z,28.00
2019-05-01T15:08:50.620Z,28.10
2019-05-01T15:11:19.824Z,28.10
2019-05-01T15:13:53.526Z,28.00
2019-05-01T15:16:27.228Z,28.20
2019-05-01T15:19:07.054Z,28.50
2019-05-01T15:21:36.265Z,28.50
2019-05-01T15:24:06.176Z,28.40
2019-05-01T15:26:35.308Z,27.90
2019-05-01T15:29:04.926Z,27.60
2019-05-01T15:31:34.165Z,27.00
2019-05-01T15:34:03.531Z,28.10
2019-05-01T15:36:32.158Z,28.10
2019-05-01T15:39:02.110Z,27.80
2019-05-01T15:41:32.444Z,28.70
2019-05-01T15:44:05.789Z,29.40
2019-05-01T15:46:36.189Z,29.50
2019-05-01T15:49:06.833Z,28.60
2019-05-01T15:51:36.779Z,28.10
2019-05-01T15:54:05.532Z,27.70
2019-05-01T15:56:34.319Z,27.70
2019-05-01T15:59:03.098Z,27.10
2019-05-01T16:01:31.882Z,26.60
2019-05-01T16:04:00.650Z,26.90
2019-05-01T16:06:29.419Z,26.00
2019-05-01T16:08:58.216Z,25.90
2019-05-01T16:11:45.077Z,26.00
2019-05-01T16:14:13.949Z,26.00
2019-05-01T16:16:42.708Z,26.40
2019-05-01T16:19:11.501Z,26.80
2019-05-01T16:21:40.341Z,26.30
2019-05-01T16:24:08.989Z,27.10
2019-05-01T16:26:37.753Z,27.40
2019-05-01T16:29:06.839Z,28.00
2019-05-01T16:31:35.628Z,29.20
2019-05-01T16:34:04.400Z,29.80
2019-05-01T16:36:33.085Z,29.50
2019-05-01T16:39:13.307Z,29.50
2019-05-01T16:41:44.049Z,29.90
2019-05-01T16:44:12.881Z,30.40
2019-05-01T16:46:41.712Z,31.30
2019-05-01T16:49:10.524Z,32.50
2019-05-01T16:51:39.141Z,34.60
2019-05-01T16:54:08.915Z,35.70
2019-05-01T16:56:37.853Z,36.10
2019-05-01T16:59:06.753Z,36.60
2019-05-01T17:01:37.233Z,37.40
2019-05-01T17:04:07.618Z,37.80
2019-05-01T17:06:46.787Z,39.10
2019-05-01T17:09:33.469Z,39.50
2019-05-01T17:12:02.310Z,39.50
2019-05-01T17:14:31.812Z,39.20
2019-05-01T17:17:00.707Z,39.70
2019-05-01T17:19:29.572Z,41.60
2019-05-01T17:21:58.487Z,41.70
2019-05-01T17:24:27.267Z,41.00
2019-05-01T17:27:16.136Z,41.60
2019-05-01T17:29:45.635Z,42.10
2019-05-01T17:32:16.074Z,42.30
2019-05-01T17:34:45.999Z,42.30
2019-05-01T17:37:14.773Z,42.60
2019-05-01T17:40:10.023Z,44.00
2019-05-01T17:42:51.592Z,44.40
2019-05-01T17:45:25.164Z,45.10
2019-05-01T17:47:59.583Z,45.00
2019-05-01T17:50:27.856Z,44.90
2019-05-01T17:52:56.550Z,46.30
2019-05-01T17:55:25.336Z,47.60
2019-05-01T17:57:54.093Z,48.10
2019-05-01T18:00:30.524Z,48.00
2019-05-01T18:03:41.900Z,48.40
2019-05-01T18:06:21.347Z,49.10
2019-05-01T18:09:02.451Z,50.30
2019-05-01T18:11:20.748Z,51.30
2019-05-01T18:13:50.400Z,53.40
2019-05-01T18:16:22.279Z,55.10
2019-05-01T18:18:51.037Z,55.50
2019-05-01T18:21:21.973Z,55.60
2019-05-01T18:23:55.553Z,56.60
2019-05-01T18:26:43.460Z,57.50
2019-05-01T18:29:30.185Z,57.60
2019-05-01T18:32:02.923Z,58.50
2019-05-01T18:34:29.421Z,59.40
2019-05-01T18:37:11.546Z,60.40
2019-05-01T18:39:42.310Z,61.50
2019-05-01T18:42:12.760Z,61.90
2019-05-01T18:44:42.509Z,63.00
2019-05-01T18:47:30.080Z,63.70
2019-05-01T18:50:21.640Z,65.60
2019-05-01T18:52:55.673Z,66.10
2019-05-01T18:55:25.964Z,66.60
2019-05-01T18:57:54.865Z,67.50
2019-05-01T19:00:23.931Z,66.70
2019-05-01T19:02:52.963Z,66.50
2019-05-01T19:05:48.277Z,66.60
2019-05-01T19:08:17.364Z,67.40
2019-05-01T19:10:46.189Z,69.50
2019-05-01T19:13:15.091Z,69.70
2019-05-01T19:15:45.154Z,69.50
2019-05-01T19:18:14.193Z,69.90
